TimeMDT,TemperatureF,Dew PointF,Humidity,Sea Level PressureIn,VisibilityMPH,Wind Direction,Wind SpeedMPH,Gust SpeedMPH,PrecipitationIn,Events,Conditions,WindDirDegrees,DateUTC
12:53 AM,44.6,28.4,53,30.12,10.0,WSW,11.5,-,N/A,,Clear,250,2012-10-30 06:53:00
1:53 AM,46.0,30.0,54,30.02,10.0,WSW,9.2,-,N/A,,Clear,240,2012-10-30 07:53:00
2:53 AM,43.0,30.9,62,30.04,10.0,WSW,15.0,-,N/A,,Clear,240,2012-10-30 08:53:00
3:53 AM,41.0,30.0,65,30.03,10.0,SW,10.4,-,N/A,,Clear,230,2012-10-30 09:53:00
4:53 AM,41.0,30.2,65,30.12,10.0,WSW,12.7,-,N/A,,Clear,240,2012-10-30 10:53:00
5:53 AM,43.0,28.9,58,30.04,10.0,SW,10.4,-,N/A,,Clear,220,2012-10-30 11:53:00
6:53 AM,46.9,30.0,52,30.04,10.0,SSW,15.0,-,N/A,,Clear,200,2012-10-30 12:53:00
7:53 AM,46.9,30.0,52,30.05,10.0,SW,17.3,-,N/A,,Clear,220,2012-10-30 13:53:00
8:53 AM,50.0,30.0,46,30.06,10.0,SW,11.5,19.6,N/A,,Clear,220,2012-10-30 14:53:00
9:53 AM,54.0,30.0,40,30.06,10.0,SSW,15.0,-,N/A,,Clear,210,2012-10-30 15:53:00
10:53 AM,53.1,30.0,41,30.06,10.0,SW,18.4,-,N/A,,Clear,220,2012-10-30 16:53:00
11:53 AM,55.9,30.0,37,30.06,10.0,SW,16.1,-,N/A,,Clear,220,2012-10-30 17:53:00
12:36 PM,57.2,26.6,31,30.13,10.0,West,11.5,-,N/A,,Clear,280,2012-10-30 18:36:00
12:53 PM,59.0,27.0,29,30.04,10.0,West,10.4,-,N/A,,Clear,260,2012-10-30 18:53:00
1:53 PM,60.1,25.0,26,30.02,10.0,West,15.0,-,N/A,,Clear,270,2012-10-30 19:53:00
2:53 PM,60.1,25.0,26,30.01,10.0,West,16.1,20.7,N/A,,Clear,260,2012-10-30 20:53:00
3:53 PM,62.1,24.1,23,30.01,10.0,West,16.1,20.7,N/A,,Clear,280,2012-10-30 21:53:00
4:53 PM,61.0,24.1,24,30.02,10.0,West,9.2,-,N/A,,Clear,260,2012-10-30 22:53:00
5:53 PM,52.0,25.0,35,30.04,10.0,SW,10.4,-,N/A,,Clear,220,2012-10-30 23:53:00
6:53 PM,45.0,27.0,49,30.05,10.0,West,5.8,-,N/A,,Clear,270,2012-10-31 00:53:00
7:53 PM,44.1,28.0,53,30.05,10.0,WSW,6.9,-,N/A,,Clear,250,2012-10-31 01:53:00
8:53 PM,41.0,28.0,60,30.06,10.0,North,3.5,-,N/A,,Clear,10,2012-10-31 02:53:00
9:53 PM,43.0,28.0,56,30.03,10.0,WSW,6.9,-,N/A,,Clear,250,2012-10-31 03:53:00
10:53 PM,39.0,28.0,65,30.06,10.0,Calm,Calm,-,N/A,,Clear,0,2012-10-31 04:53:00
11:53 PM,41.0,28.0,60,30.05,10.0,West,5.8,-,N/A,,Clear,280,2012-10-31 05:53:00